Time;durP1;ratioP1;P1;durP2;ratioP2;P2;SDS_P1;SDS_P2;PMS_P1;PMS_P2;Temp;Humidity;BMP_temperature;BMP_pressure;BME280_temperature;BME280_humidity;BME280_pressure;Samples;Min_cycle;Max_cycle;Signal;HPM_P1;HPM_P2
2022/04/03 00:01:46;;;;;;;4.83;4.43;;;;;;;-1.82;100.00;96865.75;4986968;28;20227;-55
2022/04/03 00:04:15;;;;;;;6.83;4.50;;;;;;;-1.76;100.00;96870.50;5009675;28;20205;-54
2022/04/03 00:06:43;;;;;;;4.83;4.30;;;;;;;-1.69;100.00;96863.06;5020193;28;20204;-54
2022/04/03 00:09:13;;;;;;;4.20;3.90;;;;;;;-1.71;100.00;96864.94;5016505;28;20211;-54
2022/04/03 00:11:42;;;;;;;4.50;4.20;;;;;;;-1.74;100.00;96866.00;5020463;28;20226;-56
2022/04/03 00:14:10;;;;;;;4.33;4.03;;;;;;;-1.68;100.00;96862.94;5012093;28;20227;-53
2022/04/03 00:16:40;;;;;;;4.70;4.30;;;;;;;-1.68;100.00;96867.31;4972898;28;20223;-54
2022/04/03 00:19:09;;;;;;;5.03;4.63;;;;;;;-1.73;100.00;96870.25;4991908;28;20242;-54
2022/04/03 00:21:38;;;;;;;4.30;3.97;;;;;;;-1.67;100.00;96862.00;5020047;28;20235;-52
2022/04/03 00:24:07;;;;;;;5.23;4.70;;;;;;;-1.68;100.00;96864.72;5008538;28;20207;-55
2022/04/03 00:26:37;;;;;;;4.40;4.00;;;;;;;-1.61;100.00;96865.91;5019731;28;20673;-52
2022/04/03 00:29:06;;;;;;;3.73;3.53;;;;;;;-1.70;100.00;96864.84;5009526;28;20208;-52
2022/04/03 00:31:35;;;;;;;7.63;4.33;;;;;;;-1.68;100.00;96862.13;5010635;28;20953;-52
2022/04/03 00:34:04;;;;;;;5.07;4.37;;;;;;;-1.70;100.00;96864.84;4981107;28;20212;-53
2022/04/03 00:36:32;;;;;;;4.43;3.97;;;;;;;-1.72;100.00;96871.06;5016977;28;20213;-52
2022/04/03 00:39:01;;;;;;;3.93;3.63;;;;;;;-1.69;100.00;96865.69;5021005;28;20204;-55
2022/04/03 00:41:30;;;;;;;4.00;3.70;;;;;;;-1.69;100.00;96874.28;5018495;28;20235;-52
2022/04/03 00:44:00;;;;;;;4.27;3.97;;;;;;;-1.64;100.00;96866.16;5013988;28;20207;-57
2022/04/03 00:46:29;;;;;;;4.23;3.93;;;;;;;-1.60;100.00;96872.78;5014176;28;20211;-50
2022/04/03 00:48:59;;;;;;;4.70;4.30;;;;;;;-1.66;100.00;96878.44;4985841;28;20216;-54
2022/04/03 00:51:28;;;;;;;4.00;3.80;;;;;;;-1.61;100.00;96865.91;5005074;28;20231;-54
2022/04/03 00:53:57;;;;;;;4.30;3.90;;;;;;;-1.63;100.00;96866.03;5022903;28;20212;-56
2022/04/03 00:56:25;;;;;;;4.60;4.20;;;;;;;-1.73;100.00;96866.81;5010088;28;20223;-51
2022/04/03 00:58:54;;;;;;;4.03;3.70;;;;;;;-1.67;100.00;96871.59;5021429;28;20202;-53
2022/04/03 01:01:24;;;;;;;6.50;5.60;;;;;;;-1.62;100.00;96869.47;5002628;28;20234;-53
2022/04/03 01:04:17;;;;;;;5.90;4.27;;;;;;;-1.64;100.00;96872.16;4982164;28;20220;-53
2022/04/03 01:06:46;;;;;;;4.83;4.43;;;;;;;-1.73;100.00;96885.84;5004298;28;20231;-51
2022/04/03 01:09:14;;;;;;;4.27;3.97;;;;;;;-1.80;100.00;96877.66;5023771;28;20340;-54
2022/04/03 01:11:45;;;;;;;4.07;3.77;;;;;;;-1.79;100.00;96875.91;5007837;28;20323;-56
2022/04/03 01:14:13;;;;;;;4.00;3.77;;;;;;;-1.82;100.00;96876.97;5027893;28;20370;-52
2022/04/03 01:16:43;;;;;;;4.30;3.97;;;;;;;-1.84;100.00;96885.81;4998695;28;20207;-54
2022/04/03 01:19:11;;;;;;;3.70;3.50;;;;;;;-1.85;100.00;96882.38;4996371;28;20249;-51
2022/04/03 01:21:40;;;;;;;4.33;4.03;;;;;;;-1.96;100.00;96864.19;5011123;28;20271;-54
2022/04/03 01:24:17;;;;;;;3.77;3.53;;;;;;;-1.93;100.00;96876.94;5023632;28;20458;-51
2022/04/03 01:26:48;;;;;;;4.40;4.07;;;;;;;-1.96;100.00;96879.75;5008172;28;20458;-56
2022/04/03 01:29:17;;;;;;;4.30;3.90;;;;;;;-1.99;100.00;96865.22;5025203;28;20208;-52
2022/04/03 01:31:46;;;;;;;3.30;3.10;;;;;;;-1.97;100.00;96883.28;5010295;28;20230;-53
2022/04/03 01:34:15;;;;;;;5.33;4.67;;;;;;;-1.96;100.00;96875.38;4985957;28;20211;-54
2022/04/03 01:36:44;;;;;;;4.00;3.70;;;;;;;-1.94;100.00;96885.66;5003545;28;20204;-51
2022/04/03 01:39:12;;;;;;;5.53;4.17;;;;;;;-1.95;100.00;96884.00;5029730;28;20599;-51
2022/04/03 01:41:41;;;;;;;4.10;3.70;;;;;;;-2.01;100.00;96880.09;5020817;28;20315;-54
2022/04/03 01:44:12;;;;;;;3.93;3.40;;;;;;;-1.95;100.00;96881.41;5013552;28;20208;-53
2022/04/03 01:46:41;;;;;;;3.50;3.30;;;;;;;-1.98;100.00;96876.44;5005977;28;20214;-53
2022/04/03 01:49:11;;;;;;;4.17;3.87;;;;;;;-2.00;100.00;96886.13;4980626;28;20208;-53
2022/04/03 01:51:39;;;;;;;5.10;3.33;;;;;;;-2.05;100.00;96883.84;5020764;28;20259;-50
2022/04/03 01:54:07;;;;;;;3.93;3.53;;;;;;;-2.13;100.00;96876.63;5004245;28;21038;-53
2022/04/03 01:56:36;;;;;;;3.90;3.67;;;;;;;-2.13;100.00;96873.22;5018614;28;20299;-54
2022/04/03 01:59:04;;;;;;;5.33;4.03;;;;;;;-2.21;100.00;96878.94;5015294;28;20332;-51
2022/04/03 02:01:35;;;;;;;4.47;4.07;;;;;;;-2.19;100.00;96882.25;5016549;28;20318;-56
2022/04/03 02:04:04;;;;;;;3.90;3.60;;;;;;;-2.25;100.00;96885.31;4999280;28;25697;-53
2022/04/03 02:06:32;;;;;;;3.93;3.63;;;;;;;-2.36;100.00;96889.50;5023057;28;20235;-57
2022/04/03 02:09:02;;;;;;;3.97;3.60;;;;;;;-2.40;100.00;96887.22;5008071;28;20949;-55
2022/04/03 02:11:30;;;;;;;3.53;3.33;;;;;;;-2.35;100.00;96882.53;5022773;28;20312;-55
2022/04/03 02:13:58;;;;;;;4.10;3.77;;;;;;;-2.42;100.00;96891.69;5014294;28;21813;-53
2022/04/03 02:16:26;;;;;;;3.10;2.90;;;;;;;-2.52;100.00;96889.78;5014040;28;20315;-55
2022/04/03 02:18:56;;;;;;;4.23;3.93;;;;;;;-2.59;100.00;96891.16;5026902;28;20230;-52
2022/04/03 02:21:24;;;;;;;3.60;3.30;;;;;;;-2.58;100.00;96886.78;4996663;28;20337;-52
2022/04/03 02:23:54;;;;;;;3.40;3.10;;;;;;;-2.58;100.00;96886.78;5020294;28;20228;-55
2022/04/03 02:26:22;;;;;;;4.80;3.53;;;;;;;-2.59;100.00;96890.31;5010697;28;20204;-53
2022/04/03 02:28:51;;;;;;;4.73;3.87;;;;;;;-2.55;100.00;96890.00;5026559;28;21113;-51
2022/04/03 02:31:19;;;;;;;3.23;3.03;;;;;;;-2.59;100.00;96890.31;5004097;28;20227;-52
2022/04/03 02:33:48;;;;;;;3.47;3.17;;;;;;;-2.66;100.00;96890.75;5025274;28;20704;-54
2022/04/03 02:36:18;;;;;;;3.63;3.30;;;;;;;-2.67;100.00;96894.28;5000339;28;20596;-53
2022/04/03 02:38:46;;;;;;;3.63;3.40;;;;;;;-2.65;100.00;96892.41;5025292;28;20549;-54
2022/04/03 02:41:14;;;;;;;3.43;3.23;;;;;;;-2.52;100.00;96904.50;5012682;28;20485;-50
2022/04/03 02:43:47;;;;;;;3.87;3.60;;;;;;;-2.59;100.00;96898.09;5018914;28;20944;-51
2022/04/03 02:46:15;;;;;;;3.70;3.40;;;;;;;-2.58;100.00;96907.53;5010437;28;20856;-50
2022/04/03 02:48:44;;;;;;;4.27;3.93;;;;;;;-2.62;100.00;96899.97;5011078;28;20851;-57
2022/04/03 02:51:12;;;;;;;4.30;4.00;;;;;;;-2.63;100.00;96903.50;4994831;28;20351;-54
2022/04/03 02:53:42;;;;;;;5.73;3.67;;;;;;;-2.60;100.00;96899.88;5023197;28;20284;-56
2022/04/03 02:56:10;;;;;;;3.23;3.03;;;;;;;-2.61;100.00;96903.41;5020013;28;20291;-51
2022/04/03 02:58:40;;;;;;;3.73;3.53;;;;;;;-2.59;100.00;96900.69;5005767;28;20223;-58
2022/04/03 03:01:08;;;;;;;3.43;3.23;;;;;;;-2.53;100.00;96908.88;5013018;28;20285;-53
2022/04/03 03:03:37;;;;;;;3.47;3.37;;;;;;;-2.48;100.00;96908.53;5012122;28;20310;-53
2022/04/03 03:06:06;;;;;;;5.27;3.27;;;;;;;-2.51;100.00;96908.75;5028946;28;20326;-55
2022/04/03 03:08:34;;;;;;;4.27;3.97;;;;;;;-2.55;100.00;96908.16;4992455;28;20462;-56
2022/04/03 03:11:04;;;;;;;6.73;3.30;;;;;;;-2.54;100.00;96907.22;5023509;28;20308;-56
2022/04/03 03:13:32;;;;;;;4.70;3.67;;;;;;;-2.54;100.00;96920.19;5003859;28;20995;-54
2022/04/03 03:16:01;;;;;;;3.57;3.37;;;;;;;-2.54;100.00;96909.81;5024902;28;20218;-53
2022/04/03 03:18:29;;;;;;;4.37;4.07;;;;;;;-2.56;100.00;96916.03;5010811;28;20218;-53
2022/04/03 03:20:57;;;;;;;3.97;3.67;;;;;;;-2.50;100.00;96915.59;5011619;28;20273;-55
2022/04/03 03:23:26;;;;;;;5.90;3.47;;;;;;;-2.53;100.00;96910.63;4995952;28;20496;-54
2022/04/03 03:25:54;;;;;;;3.80;3.60;;;;;;;-2.56;100.00;96916.03;5025310;28;20234;-56
2022/04/03 03:28:24;;;;;;;3.50;3.20;;;;;;;-2.64;100.00;96911.41;5010794;28;20730;-55
2022/04/03 03:30:52;;;;;;;4.17;3.87;;;;;;;-2.68;100.00;96918.56;5019440;28;20311;-53
2022/04/03 03:33:20;;;;;;;4.00;3.70;;;;;;;-2.72;100.00;96916.28;5013427;28;20462;-54
2022/04/03 03:35:49;;;;;;;4.20;3.80;;;;;;;-2.76;100.00;96913.09;5008224;28;20952;-50
2022/04/03 03:38:17;;;;;;;3.63;3.33;;;;;;;-2.84;100.00;96920.56;4998052;28;20298;-52
2022/04/03 03:40:46;;;;;;;4.97;3.57;;;;;;;-2.81;100.00;96915.19;5010189;28;20220;-55
2022/04/03 03:43:14;;;;;;;3.70;3.33;;;;;;;-2.80;100.00;96920.25;5002672;28;20334;-54
2022/04/03 03:45:44;;;;;;;3.87;3.57;;;;;;;-2.83;100.00;96922.25;5024445;28;20577;-55
2022/04/03 03:48:12;;;;;;;3.97;3.57;;;;;;;-2.80;100.00;96919.44;5011913;28;20212;-51
2022/04/03 03:50:41;;;;;;;4.37;3.53;;;;;;;-2.79;100.00;96924.50;5007917;28;20314;-52
2022/04/03 03:53:09;;;;;;;4.43;4.03;;;;;;;-2.79;100.00;96931.47;5027791;28;20199;-57
2022/04/03 03:55:37;;;;;;;3.43;3.23;;;;;;;-2.79;100.00;96934.06;4988450;28;20211;-55
2022/04/03 03:58:06;;;;;;;4.03;3.77;;;;;;;-2.76;100.00;96931.25;5007450;28;20863;-52
2022/04/03 04:00:34;;;;;;;3.83;3.43;;;;;;;-2.74;100.00;96934.56;5020640;28;20402;-55
2022/04/03 04:03:04;;;;;;;6.20;3.90;;;;;;;-2.72;100.00;96932.69;5005120;28;21308;-53
2022/04/03 04:05:33;;;;;;;3.70;3.50;;;;;;;-2.69;100.00;96940.25;5022064;28;20313;-55
2022/04/03 04:08:01;;;;;;;4.17;3.87;;;;;;;-2.66;100.00;96940.03;5015060;28;20212;-53
2022/04/03 04:10:29;;;;;;;3.93;3.70;;;;;;;-2.63;100.00;96939.00;4992238;28;21069;-52
2022/04/03 04:12:58;;;;;;;3.83;3.63;;;;;;;-2.66;100.00;96946.97;5019853;28;20299;-55
2022/04/03 04:15:28;;;;;;;4.10;3.70;;;;;;;-2.68;100.00;96952.28;5011770;28;20203;-54
2022/04/03 04:17:56;;;;;;;3.50;3.30;;;;;;;-2.75;100.00;96940.69;5023384;28;21330;-52
2022/04/03 04:20:27;;;;;;;3.60;3.30;;;;;;;-2.72;100.00;96952.59;5009939;28;20319;-56
2022/04/03 04:22:55;;;;;;;3.53;3.23;;;;;;;-2.72;100.00;96955.19;5008911;28;20233;-58
2022/04/03 04:25:24;;;;;;;5.23;4.73;;;;;;;-2.72;100.00;96960.38;4974275;28;20329;-59
2022/04/03 04:27:52;;;;;;;4.00;3.67;;;;;;;-2.77;100.00;96958.13;5016293;28;20499;-59
2022/04/03 04:30:20;;;;;;;4.20;3.80;;;;;;;-2.78;100.00;96967.63;5004909;28;20571;-57
2022/04/03 04:32:48;;;;;;;3.87;3.67;;;;;;;-2.79;100.00;96967.75;5005662;28;20302;-55
2022/04/03 04:35:17;;;;;;;5.00;3.97;;;;;;;-2.78;100.00;96964.22;5005005;28;20224;-55
2022/04/03 04:37:46;;;;;;;4.07;3.80;;;;;;;-2.72;100.00;96975.94;5007728;28;20700;-54
2022/04/03 04:40:15;;;;;;;4.47;3.57;;;;;;;-2.78;100.00;96972.00;5024039;28;20985;-55
2022/04/03 04:42:43;;;;;;;4.40;4.10;;;;;;;-2.75;100.00;96969.22;4995328;28;20322;-56
2022/04/03 04:45:14;;;;;;;4.20;3.90;;;;;;;-2.80;100.00;96972.09;5003592;28;23437;-54
2022/04/03 04:47:48;;;;;;;4.80;4.40;;;;;;;-2.77;100.00;96978.84;5004860;28;20208;-54
2022/04/03 04:50:18;;;;;;;4.47;4.07;;;;;;;-2.80;100.00;96979.06;5012057;28;20250;-57
2022/04/03 04:52:48;;;;;;;4.03;3.73;;;;;;;-2.88;100.00;96973.56;5009530;28;20219;-54
2022/04/03 04:55:16;;;;;;;4.10;3.90;;;;;;;-2.87;100.00;96983.00;5025641;28;21166;-55
2022/04/03 04:57:49;;;;;;;5.30;4.87;;;;;;;-2.84;100.00;96990.56;4996291;28;20207;-54
2022/04/03 05:00:20;;;;;;;4.57;4.27;;;;;;;-2.92;100.00;96986.72;4997882;28;22155;-53
2022/04/03 05:02:48;;;;;;;4.00;3.80;;;;;;;-2.87;100.00;96988.19;5009932;28;20250;-55
2022/04/03 05:05:18;;;;;;;4.40;4.10;;;;;;;-2.83;100.00;96989.66;5011052;28;20235;-56
2022/04/03 05:07:49;;;;;;;5.17;4.73;;;;;;;-2.86;100.00;96995.88;5020897;28;20490;-56
2022/04/03 05:10:18;;;;;;;4.13;3.80;;;;;;;-2.89;100.00;96995.22;5009527;28;20215;-60
2022/04/03 05:12:46;;;;;;;4.93;4.37;;;;;;;-2.91;100.00;97001.34;4990522;28;21064;-54
2022/04/03 05:15:14;;;;;;;4.95;4.55;;;;;;;-2.82;100.00;97004.28;5026707;28;21256;-56
2022/04/03 05:17:44;;;;;;;5.40;4.90;;;;;;;-2.88;100.00;97002.94;4991953;28;20294;-56
2022/04/03 05:20:13;;;;;;;4.70;4.37;;;;;;;-2.77;100.00;97005.59;5020748;28;20315;-53
2022/04/03 05:22:42;;;;;;;4.65;4.28;;;;;;;-2.80;100.00;97010.19;5008526;28;20872;-59
2022/04/03 05:25:12;;;;;;;4.10;3.80;;;;;;;-2.97;100.00;96988.00;5011559;28;20226;-56
2022/04/03 05:27:42;;;;;;;4.80;4.03;;;;;;;-2.76;100.00;97011.63;5022830;28;21091;-57
2022/04/03 05:30:12;;;;;;;3.57;3.30;;;;;;;-2.71;100.00;97008.72;4993102;28;20755;-56
2022/04/03 05:32:40;;;;;;;3.70;3.40;;;;;;;-2.60;100.00;97008.81;4999930;28;20321;-52
2022/04/03 05:35:10;;;;;;;4.97;4.40;;;;;;;-2.53;100.00;97012.66;5026182;28;20254;-56
2022/04/03 05:37:43;;;;;;;4.13;3.83;;;;;;;-2.55;100.00;97013.69;5014961;28;20456;-54
2022/04/03 05:40:15;;;;;;;4.40;4.10;;;;;;;-2.49;100.00;97021.88;5013297;28;20532;-58
2022/04/03 05:42:44;;;;;;;5.80;5.40;;;;;;;-2.35;100.00;97028.72;4991515;28;21837;-59
2022/04/03 05:45:13;;;;;;;6.53;4.13;;;;;;;-2.35;100.00;97020.91;4998963;28;20227;-60
2022/04/03 05:47:42;;;;;;;3.93;3.63;;;;;;;-2.26;100.00;97029.00;5005190;28;20215;-58
2022/04/03 05:50:12;;;;;;;4.17;3.87;;;;;;;-2.12;100.00;97033.22;5011817;28;20211;-56
2022/04/03 05:52:42;;;;;;;4.07;3.87;;;;;;;-2.07;100.00;97031.97;5016124;28;20290;-57
2022/04/03 05:55:11;;;;;;;5.87;3.87;;;;;;;-2.10;100.00;97037.34;5026014;28;20305;-54
2022/04/03 05:57:41;;;;;;;4.47;4.07;;;;;;;-1.87;100.00;97045.28;5014452;28;20298;-54
2022/04/03 06:00:12;;;;;;;4.37;3.97;;;;;;;-1.70;100.00;97033.69;4995114;28;20208;-50
2022/04/03 06:02:48;;;;;;;3.90;3.70;;;;;;;-1.52;100.00;97044.53;5005829;28;20200;-54
2022/04/03 06:05:18;;;;;;;3.70;3.50;;;;;;;-1.50;100.00;97047.03;5013627;28;20883;-53
2022/04/03 06:07:47;;;;;;;3.70;3.40;;;;;;;-1.56;100.00;97052.63;5012563;28;20298;-52
2022/04/03 06:10:15;;;;;;;4.93;4.53;;;;;;;-1.53;100.00;97055.84;5026694;28;20238;-53
2022/04/03 06:12:59;;;;;;;3.97;3.67;;;;;;;-1.35;100.00;97061.50;5016241;28;20672;-55
2022/04/03 06:15:31;;;;;;;3.67;3.47;;;;;;;-1.35;100.00;97053.69;4998383;28;20334;-58
2022/04/03 06:18:00;;;;;;;4.00;3.70;;;;;;;-1.32;100.00;97063.84;5010020;28;20207;-59
2022/04/03 06:20:28;;;;;;;3.57;3.37;;;;;;;-1.34;100.00;97070.09;5009884;28;20240;-58
2022/04/03 06:22:57;;;;;;;4.10;3.70;;;;;;;-1.37;100.00;97073.78;5014024;28;20824;-55
2022/04/03 06:25:25;;;;;;;4.20;3.80;;;;;;;-1.34;100.00;97068.34;5022027;28;20255;-55
2022/04/03 06:27:54;;;;;;;3.37;3.07;;;;;;;-1.21;100.00;97075.22;5010512;28;20266;-55
2022/04/03 06:30:24;;;;;;;5.20;4.17;;;;;;;-1.13;100.00;97078.13;5024462;28;20228;-52
2022/04/03 06:32:52;;;;;;;4.20;3.23;;;;;;;-1.18;100.00;97077.59;4974642;28;20292;-54
2022/04/03 06:35:20;;;;;;;5.10;4.10;;;;;;;-1.33;100.00;97080.41;5015909;28;20212;-57
2022/04/03 06:37:49;;;;;;;3.77;3.47;;;;;;;-1.15;100.00;97085.19;5027766;28;20283;-54
2022/04/03 06:40:17;;;;;;;4.10;3.80;;;;;;;-1.17;100.00;97087.91;5014520;28;20447;-57
2022/04/03 06:42:45;;;;;;;3.57;3.30;;;;;;;-1.04;100.00;97093.03;5014112;28;20695;-56
2022/04/03 06:45:15;;;;;;;3.50;3.30;;;;;;;-0.92;100.00;97086.09;5024948;28;20580;-55
2022/04/03 06:47:45;;;;;;;3.40;3.30;;;;;;;-0.99;100.00;97090.06;4998985;28;20205;-56
2022/04/03 06:50:14;;;;;;;3.53;3.33;;;;;;;-0.90;100.00;97097.22;4989122;28;20598;-56
2022/04/03 06:52:43;;;;;;;3.83;3.63;;;;;;;-0.84;100.00;97098.53;5026565;28;20295;-57
2022/04/03 06:55:11;;;;;;;3.40;3.10;;;;;;;-0.71;100.00;97101.03;5000600;28;20204;-56
2022/04/03 06:57:39;;;;;;;3.97;3.60;;;;;;;-0.57;100.00;97101.75;5013014;28;20299;-54
2022/04/03 07:00:09;;;;;;;5.87;4.23;;;;;;;-0.67;100.00;97093.84;5026141;28;20231;-54
2022/04/03 07:02:37;;;;;;;4.07;3.77;;;;;;;-0.90;100.00;97107.63;4998219;28;20839;-54
2022/04/03 07:05:09;;;;;;;3.77;3.17;;;;;;;-0.73;100.00;97095.97;5007650;28;21056;-57
2022/04/03 07:07:39;;;;;;;4.13;3.70;;;;;;;-0.64;100.00;97109.22;5013974;28;20204;-56
2022/04/03 07:10:08;;;;;;;3.80;3.57;;;;;;;-0.57;100.00;97101.75;5013337;28;20217;-58
2022/04/03 07:12:37;;;;;;;3.50;3.23;;;;;;;-0.82;100.00;97109.63;5022699;28;20329;-54
2022/04/03 07:15:08;;;;;;;3.60;3.40;;;;;;;-0.81;100.00;97105.28;5015646;28;20204;-56
2022/04/03 07:17:37;;;;;;;3.37;3.17;;;;;;;-0.82;100.00;97116.63;4999945;28;20285;-63
2022/04/03 07:20:08;;;;;;;3.37;3.07;;;;;;;-0.89;100.00;97111.03;5010588;28;20236;-54
2022/04/03 07:22:37;;;;;;;4.13;3.50;;;;;;;-0.77;100.00;97112.72;5016288;28;20360;-54
2022/04/03 07:25:05;;;;;;;3.73;3.43;;;;;;;-0.51;100.00;97114.34;5013092;28;20568;-52
2022/04/03 07:27:34;;;;;;;4.03;3.63;;;;;;;-0.38;100.00;97116.81;5025759;28;20486;-54
2022/04/03 07:30:02;;;;;;;3.93;3.43;;;;;;;0.02;100.00;97115.53;5014287;28;20303;-53
2022/04/03 07:32:36;;;;;;;4.67;3.90;;;;;;;0.40;100.00;97125.56;5024269;28;20285;-51
2022/04/03 07:35:05;;;;;;;3.37;3.07;;;;;;;0.43;100.00;97129.69;4976707;28;20918;-54
2022/04/03 07:37:35;;;;;;;3.40;3.20;;;;;;;0.67;100.00;97126.91;5009644;28;22188;-55
2022/04/03 07:40:06;;;;;;;4.03;3.83;;;;;;;0.97;100.00;97124.59;5012182;28;20204;-54
2022/04/03 07:42:35;;;;;;;4.73;3.47;;;;;;;1.43;100.00;97130.38;5023096;28;20266;-54
2022/04/03 07:45:05;;;;;;;4.67;4.03;;;;;;;1.30;100.00;97133.19;5012791;28;20345;-57
2022/04/03 07:47:34;;;;;;;4.53;4.13;;;;;;;1.50;100.00;97125.50;5024388;28;20583;-49
2022/04/03 07:50:06;;;;;;;3.78;3.58;;;;;;;1.41;100.00;97135.75;4975239;28;20550;-55
2022/04/03 07:52:35;;;;;;;4.10;3.77;;;;;;;1.36;100.00;97142.28;5024755;28;21292;-54
2022/04/03 07:55:04;;;;;;;4.15;3.85;;;;;;;1.37;100.00;97142.19;4999522;28;20436;-50
2022/04/03 07:57:32;;;;;;;5.13;3.50;;;;;;;1.85;100.00;97140.78;5013956;28;20355;-53
2022/04/03 08:00:06;;;;;;;4.10;3.90;;;;;;;2.05;100.00;97147.91;5006825;28;20297;-52
2022/04/03 08:02:35;;;;;;;3.70;3.40;;;;;;;1.85;100.00;97150.44;5020624;28;20294;-49
2022/04/03 08:05:04;;;;;;;4.17;3.80;;;;;;;2.15;100.00;97144.38;4980252;28;20223;-53
2022/04/03 08:07:37;;;;;;;3.63;3.43;;;;;;;2.11;100.00;97155.25;5021948;28;20223;-57
2022/04/03 08:10:08;;;;;;;4.00;3.70;;;;;;;1.75;100.00;97162.63;4995491;28;20459;-50
2022/04/03 08:12:36;;;;;;;3.77;3.57;;;;;;;1.43;100.00;97174.78;5022225;28;20570;-55
2022/04/03 08:15:11;;;;;;;4.07;3.67;;;;;;;1.48;100.00;97171.78;5011233;28;20909;-53
2022/04/03 08:17:40;;;;;;;3.73;3.50;;;;;;;1.56;100.00;97172.81;5024077;28;20231;-51
2022/04/03 08:20:10;;;;;;;3.13;2.93;;;;;;;1.35;100.00;97172.81;4973238;28;20243;-55
2022/04/03 08:22:40;;;;;;;4.47;4.07;;;;;;;1.64;100.00;97177.38;5020888;28;21344;-54
2022/04/03 08:25:09;;;;;;;4.40;4.00;;;;;;;1.70;100.00;97176.88;4994020;28;20219;-55
2022/04/03 08:27:43;;;;;;;4.50;3.30;;;;;;;1.19;100.00;97175.00;5020006;28;20295;-51
2022/04/03 08:30:13;;;;;;;3.60;3.40;;;;;;;1.00;100.00;97176.50;5007521;28;20340;-53
2022/04/03 08:32:41;;;;;;;4.90;3.67;;;;;;;1.28;100.00;97184.69;5007027;28;20257;-55
2022/04/03 08:35:11;;;;;;;3.67;3.47;;;;;;;1.14;100.00;97191.88;4989331;28;20785;-53
2022/04/03 08:37:40;;;;;;;3.83;3.53;;;;;;;1.33;100.00;97186.94;5007282;28;20287;-57
2022/04/03 08:40:10;;;;;;;4.23;3.73;;;;;;;1.43;100.00;97195.66;5003941;28;21144;-57
2022/04/03 08:42:39;;;;;;;3.40;3.20;;;;;;;1.65;100.00;97194.72;4992830;28;20211;-54
2022/04/03 08:45:11;;;;;;;4.20;3.90;;;;;;;1.92;100.00;97190.75;5009086;28;21187;-52
2022/04/03 08:47:44;;;;;;;5.23;4.93;;;;;;;1.47;100.00;97197.06;5028310;28;20230;-55
2022/04/03 08:50:13;;;;;;;4.20;3.80;;;;;;;1.75;100.00;97199.19;4992874;28;20734;-55
2022/04/03 08:52:46;;;;;;;4.10;3.90;;;;;;;1.47;100.00;97199.69;5003425;28;20207;-56
2022/04/03 08:55:14;;;;;;;3.80;3.60;;;;;;;1.39;100.00;97196.88;5006681;28;20733;-57
2022/04/03 08:57:48;;;;;;;4.10;3.40;;;;;;;1.93;100.00;97196.81;4992212;28;20212;-55
2022/04/03 09:00:17;;;;;;;4.77;4.23;;;;;;;2.60;100.00;97192.84;5009533;28;20255;-55
2022/04/03 09:02:46;;;;;;;4.33;3.57;;;;;;;3.08;100.00;97197.47;5010956;28;20203;-55
2022/04/03 09:05:14;;;;;;;4.17;3.80;;;;;;;3.35;100.00;97201.19;5020271;28;20248;-53
2022/04/03 09:07:45;;;;;;;3.47;3.27;;;;;;;3.23;100.00;97192.66;4979558;28;20315;-54
2022/04/03 09:10:16;;;;;;;4.23;4.03;;;;;;;4.46;100.00;97190.22;5021541;28;20291;-56
2022/04/03 09:12:46;;;;;;;3.67;3.47;;;;;;;4.35;90.73;97183.34;4993685;28;20286;-57
2022/04/03 09:15:16;;;;;;;4.00;3.70;;;;;;;4.38;83.30;97188.31;5008671;28;20287;-54
2022/04/03 09:17:45;;;;;;;3.27;3.13;;;;;;;3.62;86.53;97200.53;5007389;28;20788;-53
2022/04/03 09:20:15;;;;;;;3.97;3.30;;;;;;;2.91;95.70;97193.75;5025898;28;20273;-54
2022/04/03 09:22:46;;;;;;;4.60;4.20;;;;;;;2.68;100.00;97199.19;4981410;28;20243;-54
2022/04/03 09:25:17;;;;;;;4.23;3.93;;;;;;;2.33;100.00;97198.66;5013009;28;20203;-54
2022/04/03 09:27:48;;;;;;;4.00;3.80;;;;;;;2.34;100.00;97202.94;4992157;28;20641;-56
2022/04/03 09:30:17;;;;;;;4.10;3.87;;;;;;;2.51;100.00;97198.03;5013325;28;20214;-53
2022/04/03 09:32:49;;;;;;;4.30;3.90;;;;;;;2.83;99.72;97197.03;5006891;28;20211;-56
2022/04/03 09:35:18;;;;;;;3.57;3.37;;;;;;;3.16;93.19;97201.06;5021371;28;20358;-54
2022/04/03 09:38:11;;;;;;;3.53;3.23;;;;;;;2.10;100.00;97200.63;4985508;28;20871;-53
2022/04/03 09:40:41;;;;;;;4.60;4.03;;;;;;;1.84;100.00;97201.03;4993941;28;20235;-55
2022/04/03 09:43:20;;;;;;;3.97;3.67;;;;;;;2.30;100.00;97202.34;5005207;28;20208;-53
2022/04/03 09:45:51;;;;;;;3.47;3.27;;;;;;;2.24;95.25;97207.28;4986692;28;20254;-56
2022/04/03 09:48:27;;;;;;;3.23;2.93;;;;;;;2.44;88.13;97208.19;5010594;28;20688;-52
2022/04/03 09:51:03;;;;;;;3.13;2.90;;;;;;;2.46;83.04;97211.50;5021592;28;20325;-53
2022/04/03 09:53:43;;;;;;;3.10;2.97;;;;;;;2.11;89.50;97210.94;4971904;28;20210;-53
2022/04/03 09:56:13;;;;;;;3.20;3.03;;;;;;;2.32;87.08;97215.31;5000279;28;20234;-53
2022/04/03 09:58:55;;;;;;;3.37;3.07;;;;;;;3.12;77.32;97206.72;5008125;28;20560;-54
2022/04/03 10:01:26;;;;;;;5.43;4.03;;;;;;;4.32;71.23;97205.44;5009646;28;21014;-55
2022/04/03 10:03:56;;;;;;;4.17;3.77;;;;;;;4.45;65.05;97201.69;5010082;28;20200;-55
2022/04/03 10:06:24;;;;;;;3.63;3.30;;;;;;;4.27;61.69;97193.75;5020346;28;20300;-53
2022/04/03 10:08:55;;;;;;;3.80;3.50;;;;;;;3.85;58.82;97203.66;4991074;28;21450;-56
2022/04/03 10:11:23;;;;;;;3.23;3.03;;;;;;;3.51;61.37;97198.88;5006973;28;20231;-56
2022/04/03 10:13:52;;;;;;;3.00;2.80;;;;;;;3.61;63.36;97204.09;5004734;28;20339;-53
2022/04/03 10:16:21;;;;;;;3.30;3.07;;;;;;;3.38;64.63;97206.16;5006847;28;20759;-54
2022/04/03 10:18:51;;;;;;;5.70;3.27;;;;;;;3.33;57.50;97199.53;5013049;28;20326;-52
2022/04/03 10:21:23;;;;;;;3.53;2.90;;;;;;;3.33;59.15;97204.78;5024978;28;20304;-55
2022/04/03 10:23:52;;;;;;;3.83;3.50;;;;;;;2.84;61.33;97191.66;4995002;28;21312;-53
2022/04/03 10:26:23;;;;;;;3.50;3.30;;;;;;;2.66;77.43;97206.34;5024765;28;21503;-54
2022/04/03 10:28:55;;;;;;;2.97;2.80;;;;;;;2.39;77.28;97218.22;5012460;28;20208;-54
2022/04/03 10:31:23;;;;;;;4.10;3.80;;;;;;;2.34;85.96;97207.31;4999191;28;20343;-56
2022/04/03 10:33:53;;;;;;;4.07;3.77;;;;;;;2.46;77.24;97212.34;5011998;28;20205;-54
2022/04/03 10:36:26;;;;;;;3.33;3.10;;;;;;;2.05;84.53;97206.25;5026034;28;20203;-55
2022/04/03 10:39:00;;;;;;;3.73;3.53;;;;;;;2.18;85.16;97198.19;4979937;28;26081;-55
2022/04/03 10:41:31;;;;;;;3.50;3.33;;;;;;;1.92;86.96;97213.47;5026366;28;20228;-55
2022/04/03 10:44:16;;;;;;;3.53;3.33;;;;;;;2.03;86.56;97210.75;5009157;28;20343;-52
2022/04/03 10:47:20;;;;;;;3.90;3.60;;;;;;;2.43;73.45;97206.53;5007877;28;20301;-52
2022/04/03 10:49:50;;;;;;;4.30;3.13;;;;;;;2.57;72.11;97208.81;5010341;28;20305;-52
2022/04/03 10:52:26;;;;;;;3.63;3.40;;;;;;;2.64;70.58;97208.25;5025480;28;20255;-55
2022/04/03 10:54:57;;;;;;;2.83;2.63;;;;;;;2.92;68.65;97196.19;4996111;28;20243;-55
2022/04/03 10:57:42;;;;;;;3.43;3.13;;;;;;;3.12;63.40;97197.06;5021436;28;20204;-51
2022/04/03 11:00:39;;;;;;;3.50;3.20;;;;;;;3.24;61.16;97210.03;5028352;28;20286;-51
2022/04/03 11:03:35;;;;;;;3.13;2.93;;;;;;;3.04;61.36;97207.38;5027002;28;20298;-52
2022/04/03 11:06:23;;;;;;;3.07;2.77;;;;;;;3.16;58.40;97205.47;5014752;28;20212;-56
2022/04/03 11:09:05;;;;;;;3.87;3.17;;;;;;;2.85;56.88;97211.63;5026446;28;20262;-56
2022/04/03 11:11:37;;;;;;;3.23;3.03;;;;;;;2.96;57.41;97205.44;4997673;28;20228;-58
2022/04/03 11:14:08;;;;;;;3.00;2.80;;;;;;;2.89;59.12;97202.56;5009050;28;20269;-53
2022/04/03 11:16:53;;;;;;;3.80;3.50;;;;;;;3.25;59.15;97198.59;5020239;28;20223;-59
2022/04/03 11:19:35;;;;;;;3.90;3.50;;;;;;;4.18;62.96;97187.56;5027147;28;20679;-57
2022/04/03 11:22:05;;;;;;;3.70;3.50;;;;;;;4.59;56.76;97185.44;5015289;28;20319;-53
2022/04/03 11:24:37;;;;;;;3.63;3.43;;;;;;;4.45;52.69;97186.75;5019916;28;21008;-55
2022/04/03 11:27:06;;;;;;;3.83;3.53;;;;;;;4.48;53.36;97191.69;4995392;28;20314;-52
2022/04/03 11:29:36;;;;;;;4.40;4.03;;;;;;;4.14;53.65;97194.88;5010736;28;20270;-56
2022/04/03 11:32:06;;;;;;;3.93;3.67;;;;;;;3.86;57.44;97188.75;5027529;28;20310;-54
2022/04/03 11:34:35;;;;;;;3.53;3.33;;;;;;;3.81;55.12;97191.81;5023962;28;20228;-56
2022/04/03 11:37:08;;;;;;;3.60;3.40;;;;;;;3.51;55.68;97193.63;5014497;28;20295;-54
2022/04/03 11:39:38;;;;;;;3.93;3.73;;;;;;;3.28;58.95;97191.28;5024304;28;20595;-54
2022/04/03 11:42:08;;;;;;;4.17;3.83;;;;;;;3.33;59.07;97190.88;4994871;28;20731;-57
2022/04/03 11:44:41;;;;;;;3.60;3.33;;;;;;;3.71;59.73;97188.34;5008787;28;20838;-58